createdAt,value
2022-09-25T00:01:10.589Z,17.08
2022-09-25T00:03:38.980Z,17.09
2022-09-25T00:06:11.552Z,17.09
2022-09-25T00:08:40.015Z,17.07
2022-09-25T00:11:12.756Z,17.08
2022-09-25T00:13:40.858Z,17.08
2022-09-25T00:16:11.739Z,17.09
2022-09-25T00:18:57.129Z,17.09
2022-09-25T00:21:28.960Z,17.08
2022-09-25T00:23:55.588Z,17.06
2022-09-25T00:26:22.170Z,17.07
2022-09-25T00:28:49.980Z,17.07
2022-09-25T00:31:24.539Z,17.05
2022-09-25T00:33:52.494Z,17.07
2022-09-25T00:36:19.307Z,17.08
2022-09-25T00:38:49.005Z,17.05
2022-09-25T00:41:18.025Z,17.09
2022-09-25T00:43:48.929Z,17.08
2022-09-25T00:46:45.017Z,17.07
2022-09-25T00:49:22.497Z,17.05
2022-09-25T00:52:07.029Z,17.04
2022-09-25T00:54:38.840Z,17.05
2022-09-25T00:57:09.059Z,17.06
2022-09-25T00:59:46.450Z,17.06
2022-09-25T01:02:24.972Z,17.06
2022-09-25T01:04:52.396Z,17.05
2022-09-25T01:07:19.221Z,17.06
2022-09-25T01:09:46.660Z,17.04
2022-09-25T01:12:13.656Z,17.03
2022-09-25T01:14:40.648Z,17.03
2022-09-25T01:17:21.847Z,17.04
2022-09-25T01:20:11.974Z,17.04
2022-09-25T01:23:20.221Z,17.02
2022-09-25T01:26:15.984Z,17.03
2022-09-25T01:29:04.056Z,17.04
2022-09-25T01:31:55.403Z,17.03
2022-09-25T01:34:29.068Z,17.02
2022-09-25T01:37:24.859Z,17.02
2022-09-25T01:40:21.866Z,17.00
2022-09-25T01:43:12.559Z,17.02
2022-09-25T01:45:45.096Z,17.04
2022-09-25T01:48:16.940Z,17.03
2022-09-25T01:50:50.260Z,17.03
2022-09-25T01:53:23.410Z,17.02
2022-09-25T01:55:57.620Z,17.01
2022-09-25T01:58:27.861Z,17.03
2022-09-25T02:01:00.504Z,17.04
2022-09-25T02:03:41.548Z,17.00
2022-09-25T02:06:10.289Z,16.99
2022-09-25T02:08:44.161Z,17.01
2022-09-25T02:11:12.512Z,17.02
2022-09-25T02:13:49.204Z,17.02
2022-09-25T02:16:22.108Z,17.01
2022-09-25T02:19:09.033Z,17.01
2022-09-25T02:21:53.757Z,17.04
2022-09-25T02:24:48.079Z,17.00
2022-09-25T02:27:16.269Z,17.01
2022-09-25T02:29:42.890Z,17.00
2022-09-25T02:32:12.670Z,16.99
2022-09-25T02:34:39.800Z,16.98
2022-09-25T02:37:13.960Z,17.00
2022-09-25T02:39:43.034Z,17.00
2022-09-25T02:42:22.950Z,17.01
2022-09-25T02:45:08.348Z,16.99
2022-09-25T02:47:38.026Z,16.98
2022-09-25T02:50:34.697Z,16.99
2022-09-25T02:53:13.546Z,16.99
2022-09-25T02:55:56.719Z,16.97
2022-09-25T02:58:29.394Z,16.96
2022-09-25T03:00:59.809Z,16.98
2022-09-25T03:03:27.751Z,16.99
2022-09-25T03:05:57.938Z,16.97
2022-09-25T03:08:39.415Z,16.99
2022-09-25T03:11:08.609Z,17.01
2022-09-25T03:13:35.582Z,17.02
2022-09-25T03:16:08.434Z,16.97
2022-09-25T03:18:35.241Z,16.98
2022-09-25T03:21:04.229Z,16.97
2022-09-25T03:23:34.516Z,17.00
2022-09-25T03:26:01.091Z,17.01
2022-09-25T03:28:27.785Z,16.96
2022-09-25T03:31:01.104Z,16.97
2022-09-25T03:33:38.855Z,16.99
2022-09-25T03:36:13.902Z,17.04
2022-09-25T03:38:42.325Z,16.97
2022-09-25T03:41:11.332Z,16.92
2022-09-25T03:43:39.705Z,16.92
2022-09-25T03:46:09.296Z,16.91
2022-09-25T03:48:36.516Z,16.89
2022-09-25T03:51:04.773Z,16.90
2022-09-25T03:53:33.526Z,16.90
2022-09-25T03:56:01.863Z,16.88
2022-09-25T03:58:29.476Z,16.85
2022-09-25T04:00:57.399Z,16.88
2022-09-25T04:03:26.813Z,16.85
2022-09-25T04:05:53.488Z,16.85
2022-09-25T04:08:19.983Z,16.85
2022-09-25T04:10:47.026Z,16.83
2022-09-25T04:13:13.665Z,16.83
2022-09-25T04:15:42.857Z,16.82
2022-09-25T04:18:09.667Z,16.81
2022-09-25T04:20:38.354Z,16.81
2022-09-25T04:23:05.213Z,16.81
2022-09-25T04:25:31.926Z,16.81
2022-09-25T04:27:58.838Z,16.80
2022-09-25T04:30:27.336Z,16.81
2022-09-25T04:33:12.536Z,16.79
2022-09-25T04:35:39.196Z,16.79
2022-09-25T04:38:05.786Z,16.79
2022-09-25T04:40:32.667Z,16.79
2022-09-25T04:43:02.206Z,16.78
2022-09-25T04:45:30.895Z,16.77
2022-09-25T04:48:00.248Z,16.78
2022-09-25T04:50:28.008Z,16.77
2022-09-25T04:53:02.372Z,16.76
2022-09-25T04:55:29.269Z,16.76
2022-09-25T04:57:59.493Z,16.75
2022-09-25T05:00:29.782Z,16.76
2022-09-25T05:02:57.044Z,16.74
2022-09-25T05:05:28.104Z,16.73
2022-09-25T05:07:59.860Z,16.72
2022-09-25T05:10:32.130Z,16.70
2022-09-25T05:13:02.927Z,16.74
2022-09-25T05:15:31.882Z,16.71
2022-09-25T05:18:02.295Z,16.72
2022-09-25T05:20:28.952Z,16.69
2022-09-25T05:22:59.265Z,16.71
2022-09-25T05:25:26.571Z,16.71
2022-09-25T05:27:58.292Z,16.69
2022-09-25T05:30:26.941Z,16.69
2022-09-25T05:32:53.707Z,16.69
2022-09-25T05:35:23.927Z,16.69
2022-09-25T05:37:51.372Z,16.68
2022-09-25T05:40:21.056Z,16.67
2022-09-25T05:42:48.008Z,16.65
2022-09-25T05:45:15.935Z,16.65
2022-09-25T05:47:43.500Z,16.66
2022-09-25T05:50:13.811Z,16.64
2022-09-25T05:52:40.991Z,16.66
2022-09-25T05:55:09.589Z,16.64
2022-09-25T05:57:37.148Z,16.64
2022-09-25T06:00:06.611Z,16.63
2022-09-25T06:02:38.759Z,16.63
2022-09-25T06:05:05.653Z,16.65
2022-09-25T06:07:32.486Z,16.63
2022-09-25T06:09:59.297Z,16.63
2022-09-25T06:12:26.148Z,16.64
2022-09-25T06:14:52.978Z,16.62
2022-09-25T06:17:20.225Z,16.62
2022-09-25T06:19:46.969Z,16.60
2022-09-25T06:22:13.845Z,16.60
2022-09-25T06:24:40.710Z,16.60
2022-09-25T06:27:08.316Z,16.59
2022-09-25T06:29:35.755Z,16.59
2022-09-25T06:32:03.253Z,16.59
2022-09-25T06:34:29.981Z,16.59
2022-09-25T06:36:56.683Z,16.58
2022-09-25T06:39:23.382Z,16.58
2022-09-25T06:41:53.547Z,16.59
2022-09-25T06:44:22.431Z,16.59
2022-09-25T06:46:50.593Z,16.59
2022-09-25T06:49:17.189Z,16.59
2022-09-25T06:51:43.850Z,16.58
2022-09-25T06:54:10.478Z,16.59
2022-09-25T06:56:37.032Z,16.61
2022-09-25T06:59:04.919Z,16.59
2022-09-25T07:01:31.599Z,16.58
2022-09-25T07:03:58.190Z,16.61
2022-09-25T07:06:31.278Z,16.60
2022-09-25T07:08:57.951Z,16.61
2022-09-25T07:11:28.038Z,16.61
2022-09-25T07:13:55.266Z,16.62
2022-09-25T07:16:24.762Z,16.61
2022-09-25T07:18:54.433Z,16.62
2022-09-25T07:21:24.490Z,16.65
2022-09-25T07:23:52.346Z,16.65
2022-09-25T07:26:33.891Z,16.64
2022-09-25T07:29:06.481Z,16.65
2022-09-25T07:31:34.816Z,16.66
2022-09-25T07:34:08.846Z,16.64
2022-09-25T07:36:38.578Z,16.65
2022-09-25T07:39:06.524Z,16.60
2022-09-25T07:41:34.277Z,16.63
2022-09-25T07:44:18.166Z,16.62
2022-09-25T07:46:47.875Z,16.62
2022-09-25T07:49:14.687Z,16.65
2022-09-25T07:51:41.257Z,16.68
2022-09-25T07:54:07.975Z,16.63
2022-09-25T07:56:34.647Z,16.62
2022-09-25T07:59:01.334Z,16.65
2022-09-25T08:01:28.050Z,16.66
2022-09-25T08:03:54.938Z,16.63
2022-09-25T08:06:21.696Z,16.66
2022-09-25T08:08:48.309Z,16.67
2022-09-25T08:11:17.507Z,16.63
2022-09-25T08:13:45.256Z,16.69
2022-09-25T08:16:17.315Z,16.65
2022-09-25T08:18:46.438Z,16.67
2022-09-25T08:21:14.941Z,16.68
2022-09-25T08:23:47.519Z,16.68
2022-09-25T08:26:19.043Z,16.67
2022-09-25T08:28:45.720Z,16.66
2022-09-25T08:31:14.634Z,16.64
2022-09-25T08:33:46.451Z,16.63
2022-09-25T08:36:13.814Z,16.70
2022-09-25T08:38:40.551Z,16.69
2022-09-25T08:41:18.903Z,16.68
2022-09-25T08:44:04.901Z,16.63
2022-09-25T08:46:56.083Z,16.65
2022-09-25T08:49:26.359Z,16.66
2022-09-25T08:51:59.431Z,16.66
2022-09-25T08:54:29.486Z,16.65
2022-09-25T08:57:01.457Z,16.64
2022-09-25T08:59:30.481Z,16.64
2022-09-25T09:02:01.424Z,16.69
2022-09-25T09:04:32.058Z,16.66
2022-09-25T09:07:26.299Z,16.64
2022-09-25T09:10:00.845Z,16.62
2022-09-25T09:12:40.408Z,16.65
2022-09-25T09:15:40.705Z,16.63
2022-09-25T09:18:24.130Z,16.63
2022-09-25T09:20:56.588Z,16.66
2022-09-25T09:23:58.531Z,16.66
2022-09-25T09:26:34.469Z,16.67
2022-09-25T09:29:32.791Z,16.64
2022-09-25T09:32:09.659Z,16.64
2022-09-25T09:35:31.252Z,16.65
2022-09-25T09:38:32.045Z,16.65
2022-09-25T09:41:05.391Z,16.69
2022-09-25T09:43:46.257Z,16.68
2022-09-25T09:52:42.492Z,16.71
2022-09-25T09:58:50.587Z,16.72
2022-09-25T10:04:09.673Z,16.71
2022-09-25T10:06:40.695Z,16.72
2022-09-25T10:09:14.098Z,16.73
2022-09-25T10:11:43.246Z,16.72
2022-09-25T10:14:20.223Z,16.77
2022-09-25T10:16:50.360Z,16.76
2022-09-25T10:19:22.239Z,16.74
2022-09-25T10:22:05.103Z,16.73
2022-09-25T10:24:52.857Z,16.77
2022-09-25T10:27:26.828Z,16.78
2022-09-25T10:30:12.524Z,16.79
2022-09-25T10:33:01.191Z,16.81
2022-09-25T10:35:41.338Z,16.83
2022-09-25T10:38:25.089Z,16.86
2022-09-25T10:41:02.895Z,16.88
2022-09-25T10:43:29.730Z,16.81
2022-09-25T10:46:12.427Z,16.84
2022-09-25T10:48:58.225Z,16.85
2022-09-25T10:51:26.030Z,16.85
2022-09-25T10:54:14.162Z,16.83
2022-09-25T10:56:41.505Z,16.88
2022-09-25T10:59:21.021Z,16.84
2022-09-25T11:01:51.061Z,16.88
2022-09-25T11:04:24.827Z,16.92
2022-09-25T11:07:01.898Z,16.95
2022-09-25T11:09:32.412Z,16.91
2022-09-25T11:12:29.369Z,16.91
2022-09-25T11:15:01.560Z,16.96
2022-09-25T11:17:39.421Z,16.90
2022-09-25T11:20:16.319Z,16.93
2022-09-25T11:22:51.573Z,16.95
2022-09-25T11:25:21.217Z,16.94
2022-09-25T11:28:02.830Z,16.91
2022-09-25T11:30:39.450Z,16.98
2022-09-25T11:33:26.029Z,16.94
2022-09-25T11:36:05.807Z,16.94
2022-09-25T11:38:51.056Z,16.94
2022-09-25T11:41:45.289Z,16.97
2022-09-25T11:44:35.176Z,16.99
2022-09-25T11:47:28.295Z,17.00
2022-09-25T11:49:58.428Z,17.03
2022-09-25T11:52:28.090Z,17.02
2022-09-25T11:55:13.161Z,17.04
2022-09-25T11:57:39.755Z,17.08
2022-09-25T12:00:23.823Z,17.04
2022-09-25T12:03:14.676Z,17.06
2022-09-25T12:06:20.032Z,17.03
2022-09-25T12:09:22.154Z,17.05
2022-09-25T12:11:58.963Z,17.08
2022-09-25T12:14:40.498Z,17.12
2022-09-25T12:17:33.889Z,17.14
2022-09-25T12:20:15.194Z,17.18
2022-09-25T12:22:53.475Z,17.12
2022-09-25T12:25:45.066Z,17.09
2022-09-25T12:28:43.913Z,17.07
2022-09-25T12:32:00.733Z,17.08
2022-09-25T12:34:59.080Z,17.06
2022-09-25T12:37:46.636Z,17.07
2022-09-25T12:40:53.092Z,17.13
2022-09-25T12:43:30.163Z,17.07
2022-09-25T12:46:18.369Z,17.05
2022-09-25T12:48:51.427Z,17.05
2022-09-25T12:51:37.989Z,17.05
2022-09-25T12:54:17.681Z,17.05
2022-09-25T12:56:58.853Z,17.03
2022-09-25T12:59:41.495Z,17.03
2022-09-25T13:02:20.886Z,17.06
2022-09-25T13:04:57.711Z,17.16
2022-09-25T13:07:39.048Z,17.24
2022-09-25T13:10:19.277Z,17.27
2022-09-25T13:12:47.524Z,17.23
2022-09-25T13:15:27.721Z,17.25
2022-09-25T13:17:55.673Z,17.29
2022-09-25T13:20:28.616Z,17.34
2022-09-25T13:23:03.996Z,17.36
2022-09-25T13:25:41.512Z,17.37
2022-09-25T13:28:15.080Z,17.49
2022-09-25T13:31:06.740Z,17.48
2022-09-25T13:33:45.578Z,17.53
2022-09-25T13:36:25.327Z,17.54
2022-09-25T13:39:15.815Z,17.59
2022-09-25T13:41:51.868Z,17.59
2022-09-25T13:44:43.494Z,17.42
2022-09-25T13:47:24.901Z,17.39
2022-09-25T13:49:52.592Z,17.36
2022-09-25T13:53:09.950Z,17.34
2022-09-25T13:55:55.061Z,17.35
2022-09-25T13:58:24.025Z,17.36
2022-09-25T14:00:55.867Z,17.34
2022-09-25T14:03:34.992Z,17.35
2022-09-25T14:06:02.853Z,17.34
2022-09-25T14:08:32.701Z,17.38
2022-09-25T14:11:04.821Z,17.33
2022-09-25T14:13:33.459Z,17.38
2022-09-25T14:16:03.534Z,17.29
2022-09-25T14:18:47.597Z,17.29
2022-09-25T14:21:20.222Z,17.33
2022-09-25T14:23:53.775Z,17.29
2022-09-25T14:26:23.097Z,17.39
2022-09-25T14:28:50.519Z,17.33
2022-09-25T14:31:32.620Z,17.28
2022-09-25T14:34:05.395Z,17.29
2022-09-25T14:36:38.080Z,17.22
2022-09-25T14:39:36.909Z,17.25
2022-09-25T14:42:23.241Z,17.25
2022-09-25T14:44:52.686Z,17.20
2022-09-25T14:47:20.346Z,17.27
2022-09-25T14:49:51.287Z,17.42
2022-09-25T14:52:24.914Z,17.43
2022-09-25T14:54:55.579Z,17.53
2022-09-25T14:57:28.318Z,17.69
2022-09-25T15:00:01.780Z,17.78
2022-09-25T15:02:35.271Z,17.85
2022-09-25T15:05:27.504Z,17.87
2022-09-25T15:07:58.820Z,17.94
2022-09-25T15:10:30.086Z,17.99
2022-09-25T15:13:18.266Z,17.90
2022-09-25T15:16:12.322Z,17.90
2022-09-25T15:18:51.033Z,17.93
2022-09-25T15:21:26.198Z,17.97
2022-09-25T15:23:55.911Z,17.97
2022-09-25T15:26:23.190Z,18.04
2022-09-25T15:28:51.708Z,18.07
2022-09-25T15:31:18.998Z,18.00
2022-09-25T15:34:02.152Z,17.88
2022-09-25T15:36:29.007Z,17.89
2022-09-25T15:39:00.143Z,17.87
2022-09-25T15:41:27.866Z,17.87
2022-09-25T15:44:12.889Z,17.84
2022-09-25T15:46:45.935Z,17.86
2022-09-25T15:49:24.620Z,17.83
2022-09-25T15:51:57.575Z,17.73
2022-09-25T15:54:29.821Z,17.80
2022-09-25T15:56:58.492Z,17.78
2022-09-25T16:00:07.469Z,17.97
2022-09-25T16:02:56.931Z,17.95
2022-09-25T16:05:32.850Z,17.97
2022-09-25T16:08:24.860Z,18.02
2022-09-25T16:11:05.641Z,18.11
2022-09-25T16:13:32.892Z,18.12
2022-09-25T16:15:59.646Z,18.17
2022-09-25T16:18:41.421Z,18.25
2022-09-25T16:21:23.096Z,18.24
2022-09-25T16:23:59.188Z,18.23
2022-09-25T16:26:36.226Z,18.21
2022-09-25T16:29:23.697Z,18.20
2022-09-25T16:31:53.419Z,18.20
2022-09-25T16:34:30.305Z,18.14
2022-09-25T16:36:59.948Z,18.09
2022-09-25T16:39:38.528Z,18.07
2022-09-25T16:42:27.255Z,17.91
2022-09-25T16:45:03.907Z,17.95
2022-09-25T16:47:30.847Z,17.87
2022-09-25T16:49:57.366Z,17.86
2022-09-25T16:52:29.818Z,17.91
2022-09-25T16:55:00.953Z,17.94
2022-09-25T16:57:27.922Z,17.96
2022-09-25T16:59:54.692Z,17.93
2022-09-25T17:02:32.691Z,17.85
2022-09-25T17:05:01.787Z,17.85
2022-09-25T17:07:29.215Z,17.83
2022-09-25T17:09:55.821Z,17.80
2022-09-25T17:12:24.959Z,17.78
2022-09-25T17:14:51.676Z,17.74
2022-09-25T17:17:20.784Z,17.73
2022-09-25T17:19:48.496Z,17.74
2022-09-25T17:22:15.310Z,17.71
2022-09-25T17:24:42.204Z,17.70
2022-09-25T17:27:14.091Z,17.72
2022-09-25T17:29:42.190Z,17.67
2022-09-25T17:32:13.955Z,17.68
2022-09-25T17:34:41.078Z,17.64
2022-09-25T17:37:07.673Z,17.62
2022-09-25T17:39:34.254Z,17.62
2022-09-25T17:42:02.587Z,17.63
2022-09-25T17:44:29.141Z,17.62
2022-09-25T17:46:56.311Z,17.59
2022-09-25T17:49:23.560Z,17.63
2022-09-25T17:51:50.619Z,17.62
2022-09-25T17:54:17.570Z,17.60
2022-09-25T17:56:46.212Z,17.58
2022-09-25T17:59:14.541Z,17.60
2022-09-25T18:01:41.947Z,17.58
2022-09-25T18:04:23.551Z,17.57
2022-09-25T18:06:50.539Z,17.56
2022-09-25T18:09:17.440Z,17.52
2022-09-25T18:11:44.749Z,17.58
2022-09-25T18:14:13.384Z,17.53
2022-09-25T18:16:42.125Z,17.51
2022-09-25T18:19:35.840Z,17.52
2022-09-25T18:22:19.545Z,17.51
2022-09-25T18:24:48.108Z,17.49
2022-09-25T18:27:15.756Z,17.46
2022-09-25T18:29:44.555Z,17.47
2022-09-25T18:32:11.546Z,17.45
2022-09-25T18:34:38.042Z,17.46
2022-09-25T18:37:05.059Z,17.44
2022-09-25T18:39:31.879Z,17.43
2022-09-25T18:41:58.551Z,17.43
2022-09-25T18:44:25.253Z,17.42
2022-09-25T18:46:52.715Z,17.40
2022-09-25T18:49:19.598Z,17.42
2022-09-25T18:51:46.468Z,17.42
2022-09-25T18:54:14.468Z,17.44
2022-09-25T18:56:41.949Z,17.67
2022-09-25T18:59:08.755Z,17.77
2022-09-25T19:04:20.885Z,17.96
2022-09-25T19:06:48.449Z,18.09
2022-09-25T19:09:17.161Z,18.16
2022-09-25T19:11:44.629Z,18.14
2022-09-25T19:14:14.859Z,18.17
2022-09-25T19:16:41.620Z,18.23
2022-09-25T19:19:08.623Z,18.18
2022-09-25T19:21:35.355Z,18.22
2022-09-25T19:24:02.706Z,18.30
2022-09-25T19:26:29.318Z,18.25
2022-09-25T19:28:55.931Z,18.28
2022-09-25T19:31:24.765Z,18.33
2022-09-25T19:33:52.890Z,18.25
2022-09-25T19:36:22.201Z,18.15
2022-09-25T19:38:48.792Z,18.13
2022-09-25T19:41:26.383Z,18.16
2022-09-25T19:43:59.103Z,18.09
2022-09-25T19:46:27.700Z,18.11
2022-09-25T19:48:54.478Z,18.04
2022-09-25T19:51:23.649Z,17.89
2022-09-25T19:53:51.278Z,17.85
2022-09-25T19:56:21.569Z,17.83
2022-09-25T19:58:50.713Z,17.87
2022-09-25T20:01:27.464Z,17.80
2022-09-25T20:03:58.490Z,17.77
2022-09-25T20:06:26.855Z,17.74
2022-09-25T20:09:18.913Z,17.73
2022-09-25T20:11:46.066Z,17.68
2022-09-25T20:14:13.362Z,17.65
2022-09-25T20:16:39.969Z,17.62
2022-09-25T20:19:07.231Z,17.61
2022-09-25T20:21:39.126Z,17.58
2022-09-25T20:24:07.877Z,17.58
2022-09-25T20:26:35.973Z,17.56
2022-09-25T20:29:08.999Z,17.54
2022-09-25T20:31:38.149Z,17.50
2022-09-25T20:34:05.498Z,17.50
2022-09-25T20:36:32.473Z,17.50
2022-09-25T20:39:00.831Z,17.46
2022-09-25T20:41:27.451Z,17.44
2022-09-25T20:43:56.321Z,17.43
2022-09-25T20:46:23.967Z,17.43
2022-09-25T20:48:52.099Z,17.42
2022-09-25T20:51:27.441Z,17.48
2022-09-25T20:53:56.811Z,17.68
2022-09-25T20:56:24.331Z,17.79
2022-09-25T20:58:53.553Z,17.88
2022-09-25T21:01:22.817Z,17.96
2022-09-25T21:03:50.051Z,17.93
2022-09-25T21:06:29.618Z,17.97
2022-09-25T21:09:00.986Z,17.90
2022-09-25T21:11:30.228Z,17.87
2022-09-25T21:14:00.638Z,18.03
2022-09-25T21:16:29.196Z,18.11
2022-09-25T21:18:58.241Z,18.10
2022-09-25T21:21:26.300Z,18.12
2022-09-25T21:23:55.997Z,18.13
2022-09-25T21:26:26.124Z,18.15
2022-09-25T21:28:54.845Z,18.21
2022-09-25T21:31:24.960Z,18.26
2022-09-25T21:33:55.955Z,18.23
2022-09-25T21:36:23.694Z,18.23
2022-09-25T21:38:50.951Z,18.39
2022-09-25T21:41:24.170Z,18.34
2022-09-25T21:44:06.425Z,18.27
2022-09-25T21:46:34.784Z,18.39
2022-09-25T21:49:04.575Z,18.39
2022-09-25T21:51:34.633Z,18.31
2022-09-25T21:54:01.535Z,18.16
2022-09-25T21:56:30.413Z,18.08
2022-09-25T21:58:57.875Z,18.02
2022-09-25T22:01:29.888Z,17.98
2022-09-25T22:03:58.108Z,17.90
2022-09-25T22:06:33.693Z,17.88
2022-09-25T22:09:03.381Z,17.87
2022-09-25T22:11:30.633Z,17.89
2022-09-25T22:13:58.822Z,17.89
2022-09-25T22:16:31.795Z,17.82
2022-09-25T22:19:01.669Z,17.75
2022-09-25T22:21:32.856Z,17.72
2022-09-25T22:23:59.645Z,17.71
2022-09-25T22:26:27.819Z,17.67
2022-09-25T22:28:55.195Z,17.64
2022-09-25T22:31:25.174Z,17.63
2022-09-25T22:34:02.238Z,17.60
2022-09-25T22:36:30.166Z,17.55
2022-09-25T22:38:56.899Z,17.56
2022-09-25T22:41:24.212Z,17.53
2022-09-25T22:43:52.663Z,17.50
2022-09-25T22:46:21.605Z,17.48
2022-09-25T22:48:48.994Z,17.45
2022-09-25T22:51:24.339Z,17.41
2022-09-25T22:53:52.569Z,17.41
2022-09-25T22:56:20.368Z,17.37
2022-09-25T22:58:49.962Z,17.37
2022-09-25T23:01:23.984Z,17.36
2022-09-25T23:03:55.317Z,17.34
2022-09-25T23:06:22.524Z,17.33
2022-09-25T23:08:53.530Z,17.32
2022-09-25T23:11:21.884Z,17.31
2022-09-25T23:14:03.266Z,17.29
2022-09-25T23:16:32.379Z,17.27
2022-09-25T23:19:00.221Z,17.26
2022-09-25T23:21:28.766Z,17.27
2022-09-25T23:24:00.989Z,17.25
2022-09-25T23:26:28.556Z,17.26
2022-09-25T23:28:55.316Z,17.22
2022-09-25T23:31:22.501Z,17.24
2022-09-25T23:33:49.325Z,17.21
2022-09-25T23:36:20.899Z,17.21
2022-09-25T23:38:49.286Z,17.19
2022-09-25T23:41:24.661Z,17.18
2022-09-25T23:43:52.572Z,17.20
2022-09-25T23:46:21.545Z,17.17
2022-09-25T23:48:48.544Z,17.17
2022-09-25T23:51:17.337Z,17.16
2022-09-25T23:53:45.130Z,17.12
2022-09-25T23:56:13.779Z,17.14
2022-09-25T23:58:41.265Z,17.15
